Airfield :
LOGIN :

Register | Disclaimer

   EN    FR    IT 

 










Legend :    VFR   Marginal VFR   IFR   Intensive IFR   Very Intensive IFR
Visi :
Ceiling :
>= 8 km
>= 3000ft
5 to 8 km
1000 to 3000 ft
1500m to 5 km
500 to 1000 ft
800 to 1500m
200 to 500 ft
< 800m
< 200 ft
Symbols :   Thunderstorms  Fog  Heavy snow  Heavy precipitations  Wind > 20 kt
SIGMETs :     Misc.  Thunderstorms  Icing  Turbulence  Mountain Waves  Volcanic Ashes







- Airport Elevation : 622 ft
- IATA code : BRS
- Download approach charts


EGGD - Bristol Int.

CURRENT METAR :
  • 190120Z AUTO 19005KT 9999 BKN044 13/11 Q1013

EXPIRED METARs :
  • 190050Z AUTO 21005KT 9999 BKN045 14/11 Q1013
  • 190020Z AUTO 19004KT 9999 FEW045 13/12 Q1013
  • 182350Z AUTO 21004KT 9999 NCD 14/12 Q1013
  • 182320Z AUTO 22004KT 9999 NCD 14/12 Q1013
  • 182250Z AUTO 23005KT 9999 NCD 14/12 Q1013

TAF TAF EGGD
Valid from the 19 at 00:00 until the 20 at 00:00 UTC


182256Z 1900/1924 19005KT 9999 SCT030
TEMPO 1901/1904 8000 RA
BECMG 1904/1907 19015KT 6000 RA BKN010
TEMPO 1905/1911 2500 +RA BKN004
PROB40
TEMPO 1907/1911 21016G26KT 0500 FG BKN001
BECMG 1908/1911 9999 NSW SCT009 BKN020
TEMPO 1911/1915 7000 SHRA BKN009
TEMPO 1912/1919 26015G25KT
PROB40
TEMPO 1919/1924 6000 RA BKN006
ATIS : +44 1275 473 666
No reported NOTAMs for that airfield.



MET'MAP, your aeronautical weather chart ! - Copyright ORBIFLY December 2007 - Disclaimer

ORBIFLY MET'MAP TEAM :

Programming & Development : Alexandra Zaïnal
Concept & Development : Baudouin d'Aumeries
Co-Development & Prog : Marc-Olivier Méhu
Technical & hardware support : Manuel Goepfert

Contact : metmap@orbifly.com




SOURCES & CREDITS :

   NOAA